createdAt,value
2022-10-26T00:04:04.083Z,100343.78
2022-10-26T00:09:00.469Z,100332.16
2022-10-26T00:13:56.821Z,100338.50
2022-10-26T00:18:53.737Z,100334.91
2022-10-26T00:23:50.186Z,100336.38
2022-10-26T00:28:46.533Z,100339.25
2022-10-26T00:33:42.928Z,100338.28
2022-10-26T00:38:45.758Z,100335.22
2022-10-26T00:43:42.237Z,100342.72
2022-10-26T00:48:44.539Z,100345.16
2022-10-26T00:53:41.772Z,100333.41
2022-10-26T00:58:39.232Z,100338.81
2022-10-26T01:03:36.918Z,100332.69
2022-10-26T01:08:33.849Z,100321.97
2022-10-26T01:13:33.299Z,100329.50
2022-10-26T01:18:35.347Z,100322.91
2022-10-26T01:23:58.876Z,100322.16
2022-10-26T01:29:07.190Z,100319.72
2022-10-26T01:34:13.430Z,100308.03
2022-10-26T01:39:13.714Z,100311.78
2022-10-26T01:44:23.952Z,100306.16
2022-10-26T01:49:25.756Z,100308.16
2022-10-26T01:54:22.143Z,100299.09
2022-10-26T01:59:43.473Z,100296.44
2022-10-26T02:04:51.785Z,100290.47
2022-10-26T02:10:04.164Z,100289.84
2022-10-26T02:15:15.385Z,100281.41
2022-10-26T02:20:20.093Z,100271.41
2022-10-26T02:25:28.252Z,100269.44
2022-10-26T02:30:25.131Z,100264.97
2022-10-26T02:35:29.984Z,100259.91
2022-10-26T02:40:28.727Z,100245.59
2022-10-26T02:45:30.508Z,100242.78
2022-10-26T02:50:38.017Z,100238.50
2022-10-26T02:55:40.376Z,100239.00
2022-10-26T03:00:36.937Z,100232.69
2022-10-26T03:05:33.320Z,100231.97
2022-10-26T03:10:30.491Z,100227.25
2022-10-26T03:15:26.964Z,100222.69
2022-10-26T03:20:23.352Z,100239.72
2022-10-26T03:25:19.740Z,100226.44
2022-10-26T03:30:16.145Z,100226.06
2022-10-26T03:35:12.476Z,100217.47
2022-10-26T03:40:09.622Z,100217.47
2022-10-26T03:45:07.219Z,100206.88
2022-10-26T03:50:03.820Z,100217.16
2022-10-26T03:55:00.172Z,100219.22
2022-10-26T03:59:56.534Z,100214.50
2022-10-26T04:04:52.924Z,100209.09
2022-10-26T04:09:49.360Z,100205.94
2022-10-26T04:14:45.696Z,100207.63
2022-10-26T04:19:41.998Z,100210.25
2022-10-26T04:24:38.354Z,100210.25
2022-10-26T04:29:34.743Z,100210.38
2022-10-26T04:34:31.109Z,100204.69
2022-10-26T04:39:27.590Z,100204.44
2022-10-26T04:44:23.907Z,100203.00
2022-10-26T04:49:20.277Z,100203.47
2022-10-26T04:54:16.652Z,100198.38
2022-10-26T04:59:13.077Z,100189.19
2022-10-26T05:04:09.433Z,100191.84
2022-10-26T05:09:05.935Z,100194.13
2022-10-26T05:14:02.425Z,100188.69
2022-10-26T05:18:58.859Z,100194.34
2022-10-26T05:23:55.503Z,100196.41
2022-10-26T05:28:53.119Z,100187.47
2022-10-26T05:33:52.349Z,100192.06
2022-10-26T05:38:48.763Z,100194.72
2022-10-26T05:43:47.929Z,100186.00
2022-10-26T05:48:44.234Z,100196.63
2022-10-26T05:53:40.597Z,100195.72
2022-10-26T05:58:39.143Z,100191.44
2022-10-26T06:04:02.421Z,100200.41
2022-10-26T06:08:58.992Z,100204.03
2022-10-26T06:14:00.129Z,100198.91
2022-10-26T06:19:24.321Z,100205.16
2022-10-26T06:24:59.793Z,100208.38
2022-10-26T06:30:04.636Z,100212.59
2022-10-26T06:35:30.714Z,100211.63
2022-10-26T06:40:27.346Z,100214.75
2022-10-26T06:45:24.016Z,100223.22
2022-10-26T06:50:35.429Z,100220.75
2022-10-26T06:55:40.521Z,100215.81
2022-10-26T07:00:38.691Z,100209.16
2022-10-26T07:05:35.171Z,100207.25
2022-10-26T07:10:32.083Z,100216.53
2022-10-26T07:15:28.481Z,100210.13
2022-10-26T07:20:24.983Z,100210.22
2022-10-26T07:25:22.567Z,100213.94
2022-10-26T07:30:18.946Z,100209.75
2022-10-26T07:35:15.448Z,100211.31
2022-10-26T07:40:11.888Z,100212.44
2022-10-26T07:45:08.586Z,100207.81
2022-10-26T07:50:05.874Z,100214.59
2022-10-26T07:55:02.748Z,100217.94
2022-10-26T07:59:59.110Z,100216.78
2022-10-26T08:04:55.465Z,100222.84
2022-10-26T08:09:52.514Z,100215.63
2022-10-26T08:14:48.880Z,100218.59
2022-10-26T08:19:47.825Z,100216.16
2022-10-26T08:24:46.675Z,100228.47
2022-10-26T08:29:43.856Z,100223.03
2022-10-26T08:34:40.278Z,100230.25
2022-10-26T08:39:36.714Z,100224.09
2022-10-26T08:44:40.886Z,100217.66
2022-10-26T08:49:50.831Z,100220.13
2022-10-26T08:54:57.383Z,100224.03
2022-10-26T09:00:04.193Z,100226.47
2022-10-26T09:05:00.741Z,100222.13
2022-10-26T09:10:11.111Z,100218.88
2022-10-26T09:15:22.527Z,100219.50
2022-10-26T09:20:40.194Z,100219.72
2022-10-26T09:25:40.139Z,100222.50
2022-10-26T09:30:37.714Z,100228.56
2022-10-26T09:35:46.154Z,100225.13
2022-10-26T09:40:55.917Z,100224.31
2022-10-26T09:45:52.766Z,100236.06
2022-10-26T09:50:51.370Z,100234.97
2022-10-26T09:55:50.963Z,100238.19
2022-10-26T10:00:47.564Z,100232.63
2022-10-26T10:05:52.503Z,100248.59
2022-10-26T10:10:55.079Z,100255.97
2022-10-26T10:16:21.982Z,100274.09
2022-10-26T10:21:18.345Z,100287.56
2022-10-26T10:26:14.854Z,100287.28
2022-10-26T10:31:26.525Z,100300.22
2022-10-26T10:36:26.879Z,100287.53
2022-10-26T10:41:32.537Z,100310.69
2022-10-26T10:46:29.505Z,100313.84
2022-10-26T10:51:26.192Z,100312.66
2022-10-26T10:56:40.216Z,100309.03
2022-10-26T11:01:44.918Z,100306.19
2022-10-26T11:06:43.432Z,100312.16
2022-10-26T11:11:46.045Z,100310.53
2022-10-26T11:16:51.470Z,100322.31
2022-10-26T11:21:53.923Z,100325.53
2022-10-26T11:27:05.874Z,100329.59
2022-10-26T11:32:25.208Z,100321.50
2022-10-26T11:37:34.669Z,100330.00
2022-10-26T11:42:52.433Z,100342.34
2022-10-26T11:47:53.817Z,100329.41
2022-10-26T11:53:24.736Z,100332.66
2022-10-26T11:58:24.702Z,100330.47
2022-10-26T12:03:28.140Z,100338.81
2022-10-26T12:08:38.581Z,100341.88
2022-10-26T12:13:59.848Z,100340.31
2022-10-26T12:19:06.703Z,100344.22
2022-10-26T12:24:23.570Z,100345.22
2022-10-26T12:29:31.044Z,100342.75
2022-10-26T12:34:30.261Z,100333.66
2022-10-26T12:39:35.200Z,100342.38
2022-10-26T12:44:41.102Z,100346.69
2022-10-26T12:49:59.603Z,100347.41
2022-10-26T12:55:16.586Z,100352.56
2022-10-26T13:00:16.311Z,100362.72
2022-10-26T13:05:53.900Z,100374.47
2022-10-26T13:11:05.449Z,100376.28
2022-10-26T13:16:03.421Z,100379.22
2022-10-26T13:21:15.111Z,100385.47
2022-10-26T13:26:19.879Z,100393.63
2022-10-26T13:31:28.632Z,100399.00
2022-10-26T13:36:34.051Z,100397.56
2022-10-26T13:41:38.631Z,100392.84
2022-10-26T13:46:39.021Z,100405.72
2022-10-26T13:51:42.814Z,100409.25
2022-10-26T13:56:55.447Z,100409.06
2022-10-26T14:02:27.601Z,100404.72
2022-10-26T14:07:28.656Z,100407.44
2022-10-26T14:12:28.966Z,100395.25
2022-10-26T14:17:25.859Z,100396.94
2022-10-26T14:22:25.220Z,100410.50
2022-10-26T14:27:25.244Z,100408.75
2022-10-26T14:32:26.224Z,100415.25
2022-10-26T14:37:37.179Z,100430.47
2022-10-26T14:42:40.671Z,100432.19
2022-10-26T14:47:37.324Z,100444.72
2022-10-26T14:52:36.662Z,100443.00
2022-10-26T14:57:38.538Z,100438.69
2022-10-26T15:02:35.260Z,100447.09
2022-10-26T15:07:36.935Z,100443.06
2022-10-26T15:12:38.411Z,100460.78
2022-10-26T15:17:40.323Z,100457.88
2022-10-26T15:22:36.729Z,100472.75
2022-10-26T15:27:33.106Z,100480.00
2022-10-26T15:32:32.223Z,100486.22
2022-10-26T15:37:28.599Z,100495.66
2022-10-26T15:42:24.952Z,100498.34
2022-10-26T15:47:21.439Z,100504.22
2022-10-26T15:52:17.797Z,100503.97
2022-10-26T15:57:16.528Z,100503.91
2022-10-26T16:02:17.897Z,100509.13
2022-10-26T16:07:15.737Z,100502.41
2022-10-26T16:12:12.779Z,100509.78
2022-10-26T16:17:09.115Z,100521.84
2022-10-26T16:22:05.552Z,100523.81
2022-10-26T16:27:01.963Z,100528.22
2022-10-26T16:31:58.299Z,100528.09
2022-10-26T16:36:54.632Z,100536.53
2022-10-26T16:41:51.356Z,100548.91
2022-10-26T16:46:47.732Z,100555.47
2022-10-26T16:51:44.067Z,100553.22
2022-10-26T16:56:42.085Z,100552.13
2022-10-26T17:01:38.393Z,100569.88
2022-10-26T17:06:34.892Z,100567.94
2022-10-26T17:11:31.299Z,100572.53
2022-10-26T17:16:27.671Z,100584.06
2022-10-26T17:21:34.230Z,100587.59
2022-10-26T17:26:30.573Z,100608.25
2022-10-26T17:31:27.039Z,100608.63
2022-10-26T17:36:25.595Z,100618.44
2022-10-26T17:41:22.366Z,100626.53
2022-10-26T17:46:24.620Z,100642.66
2022-10-26T17:51:21.075Z,100653.38
2022-10-26T17:56:25.868Z,100661.63
2022-10-26T18:01:23.061Z,100669.28
2022-10-26T18:06:20.562Z,100686.13
2022-10-26T18:11:25.402Z,100691.56
2022-10-26T18:16:24.678Z,100691.75
2022-10-26T18:21:21.229Z,100692.75
2022-10-26T18:26:20.069Z,100700.06
2022-10-26T18:31:19.631Z,100692.31
2022-10-26T18:36:18.118Z,100712.47
2022-10-26T18:41:16.951Z,100729.25
2022-10-26T18:46:19.143Z,100735.81
2022-10-26T18:51:20.574Z,100738.34
2022-10-26T18:56:19.891Z,100749.41
2022-10-26T19:01:24.789Z,100761.78
2022-10-26T19:06:26.752Z,100773.63
2022-10-26T19:11:25.177Z,100773.41
2022-10-26T19:16:44.510Z,100778.72
2022-10-26T19:21:40.957Z,100780.91
2022-10-26T19:26:39.975Z,100790.59
2022-10-26T19:31:37.784Z,100803.94
2022-10-26T19:36:34.466Z,100801.78
2022-10-26T19:41:31.295Z,100819.00
2022-10-26T19:46:29.682Z,100824.69
2022-10-26T19:51:28.450Z,100828.69
2022-10-26T19:56:25.164Z,100837.31
2022-10-26T20:01:21.711Z,100844.47
2022-10-26T20:06:18.475Z,100854.13
2022-10-26T20:11:17.381Z,100860.50
2022-10-26T20:16:15.566Z,100852.69
2022-10-26T20:21:14.042Z,100863.06
2022-10-26T20:26:18.108Z,100867.50
2022-10-26T20:31:16.508Z,100877.84
2022-10-26T20:36:12.933Z,100882.31
2022-10-26T20:41:12.219Z,100880.97
2022-10-26T20:46:11.364Z,100878.31
2022-10-26T20:51:15.162Z,100874.16
2022-10-26T20:56:22.353Z,100887.06
2022-10-26T21:01:22.280Z,100893.47
2022-10-26T21:06:19.140Z,100902.88
2022-10-26T21:11:16.633Z,100905.44
2022-10-26T21:16:13.292Z,100900.75
2022-10-26T21:21:09.858Z,100912.06
2022-10-26T21:26:07.741Z,100915.66
2022-10-26T21:31:06.099Z,100912.50
2022-10-26T21:36:03.064Z,100920.81
2022-10-26T21:41:02.490Z,100926.19
2022-10-26T21:46:03.529Z,100932.28
2022-10-26T21:51:05.623Z,100936.66
2022-10-26T21:56:09.664Z,100941.03
2022-10-26T22:01:10.296Z,100949.13
2022-10-26T22:06:07.853Z,100959.75
2022-10-26T22:11:18.656Z,100956.31
2022-10-26T22:16:20.169Z,100958.34
2022-10-26T22:21:17.919Z,100971.22
2022-10-26T22:26:19.690Z,100982.00
2022-10-26T22:31:22.015Z,100982.50
2022-10-26T22:36:18.653Z,100972.25
2022-10-26T22:41:15.592Z,100983.13
2022-10-26T22:46:23.597Z,100986.03
2022-10-26T22:51:21.649Z,100979.75
2022-10-26T22:56:18.129Z,100980.16
2022-10-26T23:01:17.577Z,100985.94
2022-10-26T23:06:16.677Z,100983.69
2022-10-26T23:11:15.832Z,100992.94
2022-10-26T23:16:20.282Z,100998.19
2022-10-26T23:21:17.498Z,101007.44
2022-10-26T23:26:18.857Z,101008.75
2022-10-26T23:31:18.263Z,101007.56
2022-10-26T23:36:14.725Z,101010.22
2022-10-26T23:41:12.966Z,101021.06
2022-10-26T23:46:09.809Z,101021.06
2022-10-26T23:51:06.637Z,101028.97
2022-10-26T23:56:03.120Z,101030.44
